sensor_id;sensor_type;location;lat;lon;timestamp;P1;durP1;ratioP1;P2;durP2;ratioP2
22973;SDS011;11653;50.848;4.584;2024-03-08T00:01:35;30.23;;;15.30;;
22973;SDS011;11653;50.848;4.584;2024-03-08T00:04:01;33.50;;;17.17;;
22973;SDS011;11653;50.848;4.584;2024-03-08T00:06:26;30.30;;;15.17;;
22973;SDS011;11653;50.848;4.584;2024-03-08T00:08:52;37.40;;;17.23;;
22973;SDS011;11653;50.848;4.584;2024-03-08T00:11:18;28.87;;;15.57;;
22973;SDS011;11653;50.848;4.584;2024-03-08T00:13:43;28.67;;;15.60;;
22973;SDS011;11653;50.848;4.584;2024-03-08T00:16:10;31.97;;;16.00;;
22973;SDS011;11653;50.848;4.584;2024-03-08T00:18:35;28.90;;;15.93;;
22973;SDS011;11653;50.848;4.584;2024-03-08T00:21:01;28.17;;;15.53;;
22973;SDS011;11653;50.848;4.584;2024-03-08T00:23:27;33.70;;;18.13;;
22973;SDS011;11653;50.848;4.584;2024-03-08T00:25:53;31.03;;;15.80;;
22973;SDS011;11653;50.848;4.584;2024-03-08T00:28:20;32.90;;;16.17;;
22973;SDS011;11653;50.848;4.584;2024-03-08T00:30:46;30.47;;;15.60;;
22973;SDS011;11653;50.848;4.584;2024-03-08T00:33:12;33.47;;;16.13;;
22973;SDS011;11653;50.848;4.584;2024-03-08T00:35:38;35.23;;;17.70;;
22973;SDS011;11653;50.848;4.584;2024-03-08T00:38:05;32.63;;;17.30;;
22973;SDS011;11653;50.848;4.584;2024-03-08T00:40:31;29.17;;;15.70;;
22973;SDS011;11653;50.848;4.584;2024-03-08T00:42:56;35.13;;;16.63;;
22973;SDS011;11653;50.848;4.584;2024-03-08T00:45:22;31.17;;;16.53;;
22973;SDS011;11653;50.848;4.584;2024-03-08T00:47:48;33.77;;;17.03;;
22973;SDS011;11653;50.848;4.584;2024-03-08T00:50:14;29.33;;;15.30;;
22973;SDS011;11653;50.848;4.584;2024-03-08T00:52:40;32.47;;;15.97;;
22973;SDS011;11653;50.848;4.584;2024-03-08T00:55:11;31.17;;;14.97;;
22973;SDS011;11653;50.848;4.584;2024-03-08T00:57:37;36.97;;;18.50;;
22973;SDS011;11653;50.848;4.584;2024-03-08T01:00:05;33.20;;;16.80;;
22973;SDS011;11653;50.848;4.584;2024-03-08T01:02:41;34.57;;;18.03;;
22973;SDS011;11653;50.848;4.584;2024-03-08T01:05:07;30.93;;;17.47;;
22973;SDS011;11653;50.848;4.584;2024-03-08T01:07:33;36.70;;;17.90;;
22973;SDS011;11653;50.848;4.584;2024-03-08T01:10:00;32.60;;;17.17;;
22973;SDS011;11653;50.848;4.584;2024-03-08T01:12:27;36.17;;;18.07;;
22973;SDS011;11653;50.848;4.584;2024-03-08T01:14:53;33.13;;;18.20;;
22973;SDS011;11653;50.848;4.584;2024-03-08T01:17:18;37.63;;;18.20;;
22973;SDS011;11653;50.848;4.584;2024-03-08T01:19:44;32.03;;;17.37;;
22973;SDS011;11653;50.848;4.584;2024-03-08T01:22:10;38.10;;;20.00;;
22973;SDS011;11653;50.848;4.584;2024-03-08T01:24:36;32.13;;;17.13;;
22973;SDS011;11653;50.848;4.584;2024-03-08T01:27:02;33.70;;;18.47;;
22973;SDS011;11653;50.848;4.584;2024-03-08T01:29:28;31.30;;;17.27;;
22973;SDS011;11653;50.848;4.584;2024-03-08T01:31:57;34.63;;;17.43;;
22973;SDS011;11653;50.848;4.584;2024-03-08T01:34:25;34.13;;;17.93;;
22973;SDS011;11653;50.848;4.584;2024-03-08T01:36:53;42.83;;;20.03;;
22973;SDS011;11653;50.848;4.584;2024-03-08T01:39:20;31.67;;;18.00;;
22973;SDS011;11653;50.848;4.584;2024-03-08T01:41:47;36.33;;;18.80;;
22973;SDS011;11653;50.848;4.584;2024-03-08T01:44:13;33.00;;;19.30;;
22973;SDS011;11653;50.848;4.584;2024-03-08T01:46:43;35.97;;;20.33;;
22973;SDS011;11653;50.848;4.584;2024-03-08T01:49:10;33.67;;;18.10;;
22973;SDS011;11653;50.848;4.584;2024-03-08T01:51:36;39.97;;;20.60;;
22973;SDS011;11653;50.848;4.584;2024-03-08T01:54:04;35.67;;;20.27;;
22973;SDS011;11653;50.848;4.584;2024-03-08T01:56:30;38.77;;;20.87;;
22973;SDS011;11653;50.848;4.584;2024-03-08T01:58:56;38.20;;;19.83;;
22973;SDS011;11653;50.848;4.584;2024-03-08T02:01:23;38.33;;;20.40;;
22973;SDS011;11653;50.848;4.584;2024-03-08T02:03:50;30.17;;;18.23;;
22973;SDS011;11653;50.848;4.584;2024-03-08T02:06:15;35.17;;;20.77;;
22973;SDS011;11653;50.848;4.584;2024-03-08T02:08:42;36.10;;;19.17;;
22973;SDS011;11653;50.848;4.584;2024-03-08T02:11:09;37.07;;;20.30;;
22973;SDS011;11653;50.848;4.584;2024-03-08T02:13:35;31.90;;;18.97;;
22973;SDS011;11653;50.848;4.584;2024-03-08T02:16:01;38.97;;;20.63;;
22973;SDS011;11653;50.848;4.584;2024-03-08T02:18:27;31.73;;;19.37;;
22973;SDS011;11653;50.848;4.584;2024-03-08T02:20:54;37.37;;;21.23;;
22973;SDS011;11653;50.848;4.584;2024-03-08T02:23:22;35.33;;;20.40;;
22973;SDS011;11653;50.848;4.584;2024-03-08T02:25:50;34.60;;;18.80;;
22973;SDS011;11653;50.848;4.584;2024-03-08T02:28:16;35.87;;;20.23;;
22973;SDS011;11653;50.848;4.584;2024-03-08T02:30:45;41.43;;;22.30;;
22973;SDS011;11653;50.848;4.584;2024-03-08T02:33:13;36.67;;;20.97;;
22973;SDS011;11653;50.848;4.584;2024-03-08T02:35:42;38.13;;;21.47;;
22973;SDS011;11653;50.848;4.584;2024-03-08T02:38:15;33.60;;;20.40;;
22973;SDS011;11653;50.848;4.584;2024-03-08T02:40:49;42.27;;;22.90;;
22973;SDS011;11653;50.848;4.584;2024-03-08T02:43:16;40.20;;;21.00;;
22973;SDS011;11653;50.848;4.584;2024-03-08T02:45:42;42.73;;;21.93;;
22973;SDS011;11653;50.848;4.584;2024-03-08T02:48:12;35.57;;;21.17;;
22973;SDS011;11653;50.848;4.584;2024-03-08T02:50:38;39.63;;;22.70;;
22973;SDS011;11653;50.848;4.584;2024-03-08T02:53:13;36.40;;;21.77;;
22973;SDS011;11653;50.848;4.584;2024-03-08T02:55:39;40.13;;;22.07;;
22973;SDS011;11653;50.848;4.584;2024-03-08T02:58:06;40.57;;;22.07;;
22973;SDS011;11653;50.848;4.584;2024-03-08T03:00:34;37.93;;;21.73;;
22973;SDS011;11653;50.848;4.584;2024-03-08T03:03:01;41.33;;;22.50;;
22973;SDS011;11653;50.848;4.584;2024-03-08T03:05:28;36.67;;;22.87;;
22973;SDS011;11653;50.848;4.584;2024-03-08T03:07:57;44.87;;;23.13;;
22973;SDS011;11653;50.848;4.584;2024-03-08T03:10:23;39.80;;;23.57;;
22973;SDS011;11653;50.848;4.584;2024-03-08T03:12:49;35.30;;;21.27;;
22973;SDS011;11653;50.848;4.584;2024-03-08T03:15:15;41.23;;;23.77;;
22973;SDS011;11653;50.848;4.584;2024-03-08T03:17:47;40.23;;;22.07;;
22973;SDS011;11653;50.848;4.584;2024-03-08T03:20:14;46.97;;;23.03;;
22973;SDS011;11653;50.848;4.584;2024-03-08T03:22:40;42.20;;;23.00;;
22973;SDS011;11653;50.848;4.584;2024-03-08T03:25:07;42.33;;;22.40;;
22973;SDS011;11653;50.848;4.584;2024-03-08T03:27:34;37.70;;;22.30;;
22973;SDS011;11653;50.848;4.584;2024-03-08T03:30:00;40.13;;;20.40;;
22973;SDS011;11653;50.848;4.584;2024-03-08T03:32:45;38.17;;;21.13;;
22973;SDS011;11653;50.848;4.584;2024-03-08T03:35:16;37.27;;;20.83;;
22973;SDS011;11653;50.848;4.584;2024-03-08T03:37:42;43.07;;;23.93;;
22973;SDS011;11653;50.848;4.584;2024-03-08T03:40:10;43.33;;;24.13;;
22973;SDS011;11653;50.848;4.584;2024-03-08T03:42:38;43.77;;;23.00;;
22973;SDS011;11653;50.848;4.584;2024-03-08T03:45:05;42.67;;;24.40;;
22973;SDS011;11653;50.848;4.584;2024-03-08T03:47:31;41.87;;;22.23;;
22973;SDS011;11653;50.848;4.584;2024-03-08T03:49:56;43.70;;;23.57;;
22973;SDS011;11653;50.848;4.584;2024-03-08T03:52:26;36.63;;;23.70;;
22973;SDS011;11653;50.848;4.584;2024-03-08T03:54:52;43.37;;;23.37;;
22973;SDS011;11653;50.848;4.584;2024-03-08T03:57:19;35.70;;;22.87;;
22973;SDS011;11653;50.848;4.584;2024-03-08T03:59:48;44.93;;;24.40;;
22973;SDS011;11653;50.848;4.584;2024-03-08T04:02:13;30.17;;;17.47;;
22973;SDS011;11653;50.848;4.584;2024-03-08T04:04:39;44.50;;;20.63;;
22973;SDS011;11653;50.848;4.584;2024-03-08T04:07:05;39.50;;;21.90;;
22973;SDS011;11653;50.848;4.584;2024-03-08T04:09:31;47.60;;;24.67;;
22973;SDS011;11653;50.848;4.584;2024-03-08T04:11:59;38.70;;;23.07;;
22973;SDS011;11653;50.848;4.584;2024-03-08T04:14:26;48.07;;;24.77;;
22973;SDS011;11653;50.848;4.584;2024-03-08T04:16:51;39.17;;;22.10;;
22973;SDS011;11653;50.848;4.584;2024-03-08T04:19:17;41.40;;;23.00;;
22973;SDS011;11653;50.848;4.584;2024-03-08T04:21:44;47.93;;;24.40;;
22973;SDS011;11653;50.848;4.584;2024-03-08T04:24:10;37.60;;;23.00;;
22973;SDS011;11653;50.848;4.584;2024-03-08T04:26:35;43.47;;;23.90;;
22973;SDS011;11653;50.848;4.584;2024-03-08T04:29:01;43.43;;;23.13;;
22973;SDS011;11653;50.848;4.584;2024-03-08T04:31:28;39.17;;;20.70;;
22973;SDS011;11653;50.848;4.584;2024-03-08T04:33:57;46.53;;;24.50;;
22973;SDS011;11653;50.848;4.584;2024-03-08T04:36:22;44.13;;;23.53;;
22973;SDS011;11653;50.848;4.584;2024-03-08T04:38:49;43.13;;;23.97;;
22973;SDS011;11653;50.848;4.584;2024-03-08T04:41:16;45.90;;;23.67;;
22973;SDS011;11653;50.848;4.584;2024-03-08T04:43:43;41.53;;;22.83;;
22973;SDS011;11653;50.848;4.584;2024-03-08T04:46:09;48.43;;;24.40;;
22973;SDS011;11653;50.848;4.584;2024-03-08T04:48:35;43.57;;;21.37;;
22973;SDS011;11653;50.848;4.584;2024-03-08T04:51:02;46.47;;;24.20;;
22973;SDS011;11653;50.848;4.584;2024-03-08T04:53:29;45.43;;;23.00;;
22973;SDS011;11653;50.848;4.584;2024-03-08T04:55:55;39.00;;;21.47;;
22973;SDS011;11653;50.848;4.584;2024-03-08T04:58:23;47.73;;;24.43;;
22973;SDS011;11653;50.848;4.584;2024-03-08T05:00:49;41.97;;;22.67;;
22973;SDS011;11653;50.848;4.584;2024-03-08T05:03:15;45.00;;;22.97;;
22973;SDS011;11653;50.848;4.584;2024-03-08T05:05:41;40.17;;;23.17;;
22973;SDS011;11653;50.848;4.584;2024-03-08T05:08:07;43.87;;;23.23;;
22973;SDS011;11653;50.848;4.584;2024-03-08T05:10:32;47.33;;;24.20;;
22973;SDS011;11653;50.848;4.584;2024-03-08T05:12:58;38.90;;;22.17;;
22973;SDS011;11653;50.848;4.584;2024-03-08T05:15:24;43.23;;;22.70;;
22973;SDS011;11653;50.848;4.584;2024-03-08T05:17:49;36.70;;;22.87;;
22973;SDS011;11653;50.848;4.584;2024-03-08T05:20:15;40.13;;;23.17;;
22973;SDS011;11653;50.848;4.584;2024-03-08T05:22:42;45.63;;;23.90;;
22973;SDS011;11653;50.848;4.584;2024-03-08T05:25:08;40.47;;;21.90;;
22973;SDS011;11653;50.848;4.584;2024-03-08T05:27:34;43.07;;;23.87;;
22973;SDS011;11653;50.848;4.584;2024-03-08T05:30:01;41.53;;;23.00;;
22973;SDS011;11653;50.848;4.584;2024-03-08T05:32:29;45.20;;;21.83;;
22973;SDS011;11653;50.848;4.584;2024-03-08T05:34:55;44.53;;;22.43;;
22973;SDS011;11653;50.848;4.584;2024-03-08T05:37:20;45.63;;;23.27;;
22973;SDS011;11653;50.848;4.584;2024-03-08T05:39:47;40.83;;;22.43;;
22973;SDS011;11653;50.848;4.584;2024-03-08T05:42:12;36.43;;;17.73;;
22973;SDS011;11653;50.848;4.584;2024-03-08T05:44:38;46.50;;;22.60;;
22973;SDS011;11653;50.848;4.584;2024-03-08T05:47:05;45.93;;;22.63;;
22973;SDS011;11653;50.848;4.584;2024-03-08T05:49:32;37.63;;;21.53;;
22973;SDS011;11653;50.848;4.584;2024-03-08T05:51:59;45.23;;;23.00;;
22973;SDS011;11653;50.848;4.584;2024-03-08T05:54:25;43.00;;;23.10;;
22973;SDS011;11653;50.848;4.584;2024-03-08T05:56:52;41.13;;;23.30;;
22973;SDS011;11653;50.848;4.584;2024-03-08T05:59:18;43.70;;;22.57;;
22973;SDS011;11653;50.848;4.584;2024-03-08T06:01:45;46.50;;;24.07;;
22973;SDS011;11653;50.848;4.584;2024-03-08T06:04:12;44.93;;;23.23;;
22973;SDS011;11653;50.848;4.584;2024-03-08T06:06:37;45.47;;;23.90;;
22973;SDS011;11653;50.848;4.584;2024-03-08T06:09:03;47.10;;;24.33;;
22973;SDS011;11653;50.848;4.584;2024-03-08T06:11:36;49.73;;;23.73;;
22973;SDS011;11653;50.848;4.584;2024-03-08T06:14:03;48.00;;;23.20;;
22973;SDS011;11653;50.848;4.584;2024-03-08T06:16:29;50.70;;;24.73;;
22973;SDS011;11653;50.848;4.584;2024-03-08T06:18:55;41.50;;;22.73;;
22973;SDS011;11653;50.848;4.584;2024-03-08T06:21:22;46.37;;;23.73;;
22973;SDS011;11653;50.848;4.584;2024-03-08T06:23:51;48.20;;;24.47;;
22973;SDS011;11653;50.848;4.584;2024-03-08T06:26:19;42.40;;;23.73;;
22973;SDS011;11653;50.848;4.584;2024-03-08T06:28:47;48.30;;;24.27;;
22973;SDS011;11653;50.848;4.584;2024-03-08T06:31:13;43.07;;;23.50;;
22973;SDS011;11653;50.848;4.584;2024-03-08T06:33:39;40.67;;;22.43;;
22973;SDS011;11653;50.848;4.584;2024-03-08T06:36:05;49.77;;;23.97;;
22973;SDS011;11653;50.848;4.584;2024-03-08T06:38:32;46.83;;;23.87;;
22973;SDS011;11653;50.848;4.584;2024-03-08T06:40:57;48.17;;;25.37;;
22973;SDS011;11653;50.848;4.584;2024-03-08T06:43:23;35.97;;;21.67;;
22973;SDS011;11653;50.848;4.584;2024-03-08T06:45:55;43.93;;;22.83;;
22973;SDS011;11653;50.848;4.584;2024-03-08T06:48:20;48.10;;;24.80;;
22973;SDS011;11653;50.848;4.584;2024-03-08T06:50:46;40.83;;;22.17;;
22973;SDS011;11653;50.848;4.584;2024-03-08T06:53:12;39.63;;;21.73;;
22973;SDS011;11653;50.848;4.584;2024-03-08T06:55:38;43.43;;;22.90;;
22973;SDS011;11653;50.848;4.584;2024-03-08T06:58:05;46.20;;;23.27;;
22973;SDS011;11653;50.848;4.584;2024-03-08T07:00:32;38.43;;;20.53;;
22973;SDS011;11653;50.848;4.584;2024-03-08T07:02:58;40.40;;;20.97;;
22973;SDS011;11653;50.848;4.584;2024-03-08T07:05:29;33.97;;;19.17;;
22973;SDS011;11653;50.848;4.584;2024-03-08T07:07:55;39.80;;;19.87;;
22973;SDS011;11653;50.848;4.584;2024-03-08T07:10:21;33.10;;;19.63;;
22973;SDS011;11653;50.848;4.584;2024-03-08T07:12:49;34.70;;;20.93;;
22973;SDS011;11653;50.848;4.584;2024-03-08T07:15:16;33.90;;;18.93;;
22973;SDS011;11653;50.848;4.584;2024-03-08T07:17:44;31.43;;;19.53;;
22973;SDS011;11653;50.848;4.584;2024-03-08T07:20:11;33.97;;;19.53;;
22973;SDS011;11653;50.848;4.584;2024-03-08T07:22:38;29.23;;;17.50;;
22973;SDS011;11653;50.848;4.584;2024-03-08T07:25:07;36.70;;;19.57;;
22973;SDS011;11653;50.848;4.584;2024-03-08T07:27:49;32.03;;;18.87;;
22973;SDS011;11653;50.848;4.584;2024-03-08T07:30:19;33.73;;;19.43;;
22973;SDS011;11653;50.848;4.584;2024-03-08T07:33:20;34.00;;;18.60;;
22973;SDS011;11653;50.848;4.584;2024-03-08T07:35:47;33.03;;;18.73;;
22973;SDS011;11653;50.848;4.584;2024-03-08T07:38:15;30.50;;;18.90;;
22973;SDS011;11653;50.848;4.584;2024-03-08T07:40:41;30.10;;;18.43;;
22973;SDS011;11653;50.848;4.584;2024-03-08T07:43:10;25.73;;;16.10;;
22973;SDS011;11653;50.848;4.584;2024-03-08T07:45:37;32.40;;;18.90;;
22973;SDS011;11653;50.848;4.584;2024-03-08T07:48:03;33.63;;;19.10;;
22973;SDS011;11653;50.848;4.584;2024-03-08T07:50:34;29.90;;;16.67;;
22973;SDS011;11653;50.848;4.584;2024-03-08T07:53:04;30.00;;;17.03;;
22973;SDS011;11653;50.848;4.584;2024-03-08T07:55:31;32.17;;;18.10;;
22973;SDS011;11653;50.848;4.584;2024-03-08T07:57:58;31.13;;;18.87;;
22973;SDS011;11653;50.848;4.584;2024-03-08T08:00:24;29.23;;;18.07;;
22973;SDS011;11653;50.848;4.584;2024-03-08T08:02:52;32.70;;;18.17;;
22973;SDS011;11653;50.848;4.584;2024-03-08T08:05:18;28.63;;;17.33;;
22973;SDS011;11653;50.848;4.584;2024-03-08T08:07:44;29.27;;;18.30;;
22973;SDS011;11653;50.848;4.584;2024-03-08T08:10:11;31.77;;;19.60;;
22973;SDS011;11653;50.848;4.584;2024-03-08T08:12:50;31.93;;;18.30;;
22973;SDS011;11653;50.848;4.584;2024-03-08T08:15:18;27.43;;;17.40;;
22973;SDS011;11653;50.848;4.584;2024-03-08T08:17:44;27.87;;;17.30;;
22973;SDS011;11653;50.848;4.584;2024-03-08T08:20:11;30.43;;;17.17;;
22973;SDS011;11653;50.848;4.584;2024-03-08T08:22:42;29.73;;;18.07;;
22973;SDS011;11653;50.848;4.584;2024-03-08T08:25:10;28.23;;;17.10;;
22973;SDS011;11653;50.848;4.584;2024-03-08T08:27:38;28.67;;;17.63;;
22973;SDS011;11653;50.848;4.584;2024-03-08T08:30:10;31.00;;;17.60;;
22973;SDS011;11653;50.848;4.584;2024-03-08T08:32:36;32.27;;;17.63;;
22973;SDS011;11653;50.848;4.584;2024-03-08T08:35:04;31.23;;;18.00;;
22973;SDS011;11653;50.848;4.584;2024-03-08T08:37:31;30.03;;;17.90;;
22973;SDS011;11653;50.848;4.584;2024-03-08T08:39:57;27.70;;;17.10;;
22973;SDS011;11653;50.848;4.584;2024-03-08T08:42:23;25.77;;;14.97;;
22973;SDS011;11653;50.848;4.584;2024-03-08T08:44:49;29.60;;;18.00;;
22973;SDS011;11653;50.848;4.584;2024-03-08T08:47:17;30.27;;;18.33;;
22973;SDS011;11653;50.848;4.584;2024-03-08T08:49:44;28.80;;;17.53;;
22973;SDS011;11653;50.848;4.584;2024-03-08T08:52:11;29.13;;;17.63;;
22973;SDS011;11653;50.848;4.584;2024-03-08T08:54:37;25.33;;;14.83;;
22973;SDS011;11653;50.848;4.584;2024-03-08T08:57:03;27.07;;;16.67;;
22973;SDS011;11653;50.848;4.584;2024-03-08T08:59:33;25.87;;;16.30;;
22973;SDS011;11653;50.848;4.584;2024-03-08T09:02:01;26.73;;;16.30;;
22973;SDS011;11653;50.848;4.584;2024-03-08T09:04:29;23.83;;;14.70;;
22973;SDS011;11653;50.848;4.584;2024-03-08T09:06:58;24.00;;;15.50;;
22973;SDS011;11653;50.848;4.584;2024-03-08T09:09:24;25.73;;;15.10;;
22973;SDS011;11653;50.848;4.584;2024-03-08T09:11:50;28.00;;;16.37;;
22973;SDS011;11653;50.848;4.584;2024-03-08T09:14:16;26.43;;;15.73;;
22973;SDS011;11653;50.848;4.584;2024-03-08T09:16:42;25.03;;;16.30;;
22973;SDS011;11653;50.848;4.584;2024-03-08T09:19:08;28.03;;;16.43;;
22973;SDS011;11653;50.848;4.584;2024-03-08T09:21:36;26.60;;;16.93;;
22973;SDS011;11653;50.848;4.584;2024-03-08T09:24:02;23.83;;;15.20;;
22973;SDS011;11653;50.848;4.584;2024-03-08T09:26:28;23.93;;;13.63;;
22973;SDS011;11653;50.848;4.584;2024-03-08T09:28:53;22.23;;;15.07;;
22973;SDS011;11653;50.848;4.584;2024-03-08T09:31:22;27.87;;;16.37;;
22973;SDS011;11653;50.848;4.584;2024-03-08T09:33:47;21.60;;;13.97;;
22973;SDS011;11653;50.848;4.584;2024-03-08T09:36:13;25.33;;;14.60;;
22973;SDS011;11653;50.848;4.584;2024-03-08T09:38:39;23.03;;;15.47;;
22973;SDS011;11653;50.848;4.584;2024-03-08T09:41:05;24.50;;;15.50;;
22973;SDS011;11653;50.848;4.584;2024-03-08T09:43:31;24.70;;;16.33;;
22973;SDS011;11653;50.848;4.584;2024-03-08T09:45:57;23.70;;;14.37;;
22973;SDS011;11653;50.848;4.584;2024-03-08T09:48:23;23.97;;;15.67;;
22973;SDS011;11653;50.848;4.584;2024-03-08T09:50:51;24.43;;;14.77;;
22973;SDS011;11653;50.848;4.584;2024-03-08T09:53:16;26.87;;;16.13;;
22973;SDS011;11653;50.848;4.584;2024-03-08T09:55:43;23.67;;;15.13;;
22973;SDS011;11653;50.848;4.584;2024-03-08T09:58:13;23.87;;;15.17;;
22973;SDS011;11653;50.848;4.584;2024-03-08T10:01:00;22.77;;;13.93;;
22973;SDS011;11653;50.848;4.584;2024-03-08T10:03:29;24.33;;;14.70;;
22973;SDS011;11653;50.848;4.584;2024-03-08T10:05:57;28.17;;;15.53;;
22973;SDS011;11653;50.848;4.584;2024-03-08T10:08:28;22.40;;;14.90;;
22973;SDS011;11653;50.848;4.584;2024-03-08T10:10:57;20.77;;;14.23;;
22973;SDS011;11653;50.848;4.584;2024-03-08T10:13:24;22.13;;;14.40;;
22973;SDS011;11653;50.848;4.584;2024-03-08T10:15:52;28.20;;;15.23;;
22973;SDS011;11653;50.848;4.584;2024-03-08T10:18:19;23.20;;;14.70;;
22973;SDS011;11653;50.848;4.584;2024-03-08T10:20:46;23.30;;;14.60;;
22973;SDS011;11653;50.848;4.584;2024-03-08T10:23:28;24.93;;;15.23;;
22973;SDS011;11653;50.848;4.584;2024-03-08T10:25:55;26.47;;;15.20;;
22973;SDS011;11653;50.848;4.584;2024-03-08T10:28:23;22.83;;;14.40;;
22973;SDS011;11653;50.848;4.584;2024-03-08T10:30:53;25.33;;;14.63;;
22973;SDS011;11653;50.848;4.584;2024-03-08T10:33:23;20.93;;;13.43;;
22973;SDS011;11653;50.848;4.584;2024-03-08T10:35:48;21.13;;;14.13;;
22973;SDS011;11653;50.848;4.584;2024-03-08T10:38:14;24.63;;;14.33;;
22973;SDS011;11653;50.848;4.584;2024-03-08T10:40:43;20.93;;;13.97;;
22973;SDS011;11653;50.848;4.584;2024-03-08T10:43:23;23.07;;;14.70;;
22973;SDS011;11653;50.848;4.584;2024-03-08T10:45:50;20.57;;;13.50;;
22973;SDS011;11653;50.848;4.584;2024-03-08T10:48:30;23.10;;;14.53;;
22973;SDS011;11653;50.848;4.584;2024-03-08T10:50:57;24.63;;;15.77;;
22973;SDS011;11653;50.848;4.584;2024-03-08T10:53:27;22.23;;;13.77;;
22973;SDS011;11653;50.848;4.584;2024-03-08T10:55:56;20.00;;;12.70;;
22973;SDS011;11653;50.848;4.584;2024-03-08T10:58:23;20.37;;;12.47;;
22973;SDS011;11653;50.848;4.584;2024-03-08T11:00:56;23.07;;;14.47;;
22973;SDS011;11653;50.848;4.584;2024-03-08T11:06:13;23.07;;;14.37;;
22973;SDS011;11653;50.848;4.584;2024-03-08T11:08:41;21.20;;;11.43;;
22973;SDS011;11653;50.848;4.584;2024-03-08T11:11:22;23.33;;;13.80;;
22973;SDS011;11653;50.848;4.584;2024-03-08T11:13:53;23.83;;;14.17;;
22973;SDS011;11653;50.848;4.584;2024-03-08T11:18:54;19.60;;;10.93;;
22973;SDS011;11653;50.848;4.584;2024-03-08T11:21:29;21.67;;;13.43;;
22973;SDS011;11653;50.848;4.584;2024-03-08T11:24:07;22.63;;;14.37;;
22973;SDS011;11653;50.848;4.584;2024-03-08T11:26:36;20.60;;;13.70;;
22973;SDS011;11653;50.848;4.584;2024-03-08T11:32:08;22.33;;;13.47;;
22973;SDS011;11653;50.848;4.584;2024-03-08T11:34:42;22.07;;;12.50;;
22973;SDS011;11653;50.848;4.584;2024-03-08T11:37:21;20.17;;;13.17;;
22973;SDS011;11653;50.848;4.584;2024-03-08T11:42:17;22.30;;;15.03;;
22973;SDS011;11653;50.848;4.584;2024-03-08T11:44:47;21.17;;;13.43;;
22973;SDS011;11653;50.848;4.584;2024-03-08T11:47:14;23.20;;;14.30;;
22973;SDS011;11653;50.848;4.584;2024-03-08T11:49:41;21.70;;;13.33;;
22973;SDS011;11653;50.848;4.584;2024-03-08T11:52:12;24.57;;;14.63;;
22973;SDS011;11653;50.848;4.584;2024-03-08T11:54:57;20.03;;;12.87;;
22973;SDS011;11653;50.848;4.584;2024-03-08T11:57:23;21.73;;;14.13;;
22973;SDS011;11653;50.848;4.584;2024-03-08T11:59:52;19.77;;;13.90;;
22973;SDS011;11653;50.848;4.584;2024-03-08T12:02:19;19.57;;;13.40;;
22973;SDS011;11653;50.848;4.584;2024-03-08T12:04:45;20.60;;;13.37;;
22973;SDS011;11653;50.848;4.584;2024-03-08T12:07:14;22.23;;;13.37;;
22973;SDS011;11653;50.848;4.584;2024-03-08T12:09:43;25.10;;;14.30;;
22973;SDS011;11653;50.848;4.584;2024-03-08T12:12:30;22.27;;;13.00;;
22973;SDS011;11653;50.848;4.584;2024-03-08T12:14:57;19.67;;;13.13;;
22973;SDS011;11653;50.848;4.584;2024-03-08T12:17:23;22.43;;;14.53;;
22973;SDS011;11653;50.848;4.584;2024-03-08T12:19:49;20.53;;;12.90;;
22973;SDS011;11653;50.848;4.584;2024-03-08T12:22:15;21.33;;;13.40;;
22973;SDS011;11653;50.848;4.584;2024-03-08T12:24:40;22.57;;;13.00;;
22973;SDS011;11653;50.848;4.584;2024-03-08T12:27:19;18.33;;;11.97;;
22973;SDS011;11653;50.848;4.584;2024-03-08T12:29:45;18.63;;;12.10;;
22973;SDS011;11653;50.848;4.584;2024-03-08T12:32:12;19.53;;;12.77;;
22973;SDS011;11653;50.848;4.584;2024-03-08T12:34:37;22.30;;;13.73;;
22973;SDS011;11653;50.848;4.584;2024-03-08T12:37:03;21.77;;;13.27;;
22973;SDS011;11653;50.848;4.584;2024-03-08T12:39:32;20.87;;;13.93;;
22973;SDS011;11653;50.848;4.584;2024-03-08T12:41:58;21.87;;;13.87;;
22973;SDS011;11653;50.848;4.584;2024-03-08T12:44:24;19.30;;;12.83;;
22973;SDS011;11653;50.848;4.584;2024-03-08T12:46:50;17.00;;;11.33;;
22973;SDS011;11653;50.848;4.584;2024-03-08T12:49:16;20.80;;;13.53;;
22973;SDS011;11653;50.848;4.584;2024-03-08T12:51:45;29.17;;;14.37;;
22973;SDS011;11653;50.848;4.584;2024-03-08T12:54:11;21.83;;;13.67;;
22973;SDS011;11653;50.848;4.584;2024-03-08T12:56:37;21.50;;;14.23;;
22973;SDS011;11653;50.848;4.584;2024-03-08T12:59:04;19.80;;;11.13;;
22973;SDS011;11653;50.848;4.584;2024-03-08T13:01:32;21.67;;;14.13;;
22973;SDS011;11653;50.848;4.584;2024-03-08T13:03:59;20.63;;;13.07;;
22973;SDS011;11653;50.848;4.584;2024-03-08T13:06:28;19.87;;;13.40;;
22973;SDS011;11653;50.848;4.584;2024-03-08T13:08:56;22.60;;;13.90;;
22973;SDS011;11653;50.848;4.584;2024-03-08T13:11:23;18.70;;;12.20;;
22973;SDS011;11653;50.848;4.584;2024-03-08T13:13:52;21.03;;;13.40;;
22973;SDS011;11653;50.848;4.584;2024-03-08T13:16:18;21.33;;;13.47;;
22973;SDS011;11653;50.848;4.584;2024-03-08T13:18:44;20.57;;;14.03;;
22973;SDS011;11653;50.848;4.584;2024-03-08T13:21:13;20.43;;;13.40;;
22973;SDS011;11653;50.848;4.584;2024-03-08T13:23:40;18.53;;;12.17;;
22973;SDS011;11653;50.848;4.584;2024-03-08T13:26:10;21.67;;;12.87;;
22973;SDS011;11653;50.848;4.584;2024-03-08T13:28:46;23.40;;;13.07;;
22973;SDS011;11653;50.848;4.584;2024-03-08T13:31:21;19.67;;;13.60;;
22973;SDS011;11653;50.848;4.584;2024-03-08T13:33:49;21.90;;;13.77;;
22973;SDS011;11653;50.848;4.584;2024-03-08T13:36:22;20.87;;;12.97;;
22973;SDS011;11653;50.848;4.584;2024-03-08T13:38:49;20.80;;;13.73;;
22973;SDS011;11653;50.848;4.584;2024-03-08T13:41:15;23.23;;;14.37;;
22973;SDS011;11653;50.848;4.584;2024-03-08T13:43:42;21.87;;;13.63;;
22973;SDS011;11653;50.848;4.584;2024-03-08T13:46:13;21.93;;;12.13;;
22973;SDS011;11653;50.848;4.584;2024-03-08T13:48:38;22.60;;;13.03;;
22973;SDS011;11653;50.848;4.584;2024-03-08T13:51:04;17.43;;;11.50;;
22973;SDS011;11653;50.848;4.584;2024-03-08T13:53:36;20.60;;;13.30;;
22973;SDS011;11653;50.848;4.584;2024-03-08T13:56:02;17.13;;;10.33;;
22973;SDS011;11653;50.848;4.584;2024-03-08T13:58:28;20.50;;;12.27;;
22973;SDS011;11653;50.848;4.584;2024-03-08T14:00:53;23.07;;;12.97;;
22973;SDS011;11653;50.848;4.584;2024-03-08T14:03:20;26.10;;;13.47;;
22973;SDS011;11653;50.848;4.584;2024-03-08T14:05:46;20.97;;;11.90;;
22973;SDS011;11653;50.848;4.584;2024-03-08T14:08:12;22.60;;;13.47;;
22973;SDS011;11653;50.848;4.584;2024-03-08T14:10:38;23.43;;;13.33;;
22973;SDS011;11653;50.848;4.584;2024-03-08T14:13:04;20.90;;;12.93;;
22973;SDS011;11653;50.848;4.584;2024-03-08T14:15:31;21.63;;;12.40;;
22973;SDS011;11653;50.848;4.584;2024-03-08T14:17:58;21.97;;;11.57;;
22973;SDS011;11653;50.848;4.584;2024-03-08T14:20:24;18.40;;;12.07;;
22973;SDS011;11653;50.848;4.584;2024-03-08T14:22:53;19.03;;;12.83;;
22973;SDS011;11653;50.848;4.584;2024-03-08T14:25:20;18.87;;;11.50;;
22973;SDS011;11653;50.848;4.584;2024-03-08T14:27:49;18.00;;;12.17;;
22973;SDS011;11653;50.848;4.584;2024-03-08T14:30:18;27.00;;;13.80;;
22973;SDS011;11653;50.848;4.584;2024-03-08T14:33:04;20.50;;;12.40;;
22973;SDS011;11653;50.848;4.584;2024-03-08T14:35:39;18.50;;;11.03;;